createdAt,value
2023-02-09T00:02:02.612Z,62.51
2023-02-09T00:07:03.736Z,62.04
2023-02-09T00:12:23.777Z,62.00
2023-02-09T00:17:24.484Z,62.70
2023-02-09T00:22:25.154Z,62.59
2023-02-09T00:27:27.172Z,62.20
2023-02-09T00:32:27.873Z,62.44
2023-02-09T00:37:28.590Z,61.69
2023-02-09T00:42:30.595Z,61.29
2023-02-09T00:47:31.256Z,60.86
2023-02-09T00:52:31.925Z,60.86
2023-02-09T00:57:33.933Z,60.47
2023-02-09T01:02:34.720Z,60.35
2023-02-09T01:07:35.710Z,60.18
2023-02-09T01:12:40.173Z,60.48
2023-02-09T01:17:41.072Z,59.55
2023-02-09T01:22:41.860Z,59.45
2023-02-09T01:27:43.867Z,59.42
2023-02-09T01:32:44.971Z,59.23
2023-02-09T01:37:46.720Z,59.98
2023-02-09T01:42:50.185Z,59.74
2023-02-09T01:47:56.402Z,59.62
2023-02-09T01:52:58.956Z,60.12
2023-02-09T01:58:10.076Z,59.73
2023-02-09T02:03:15.319Z,60.09
2023-02-09T02:08:20.206Z,60.50
2023-02-09T02:13:22.543Z,60.73
2023-02-09T02:18:39.514Z,60.79
2023-02-09T02:23:49.358Z,60.78
2023-02-09T02:29:17.279Z,61.22
2023-02-09T02:34:24.138Z,61.52
2023-02-09T02:39:30.189Z,61.62
2023-02-09T02:44:32.933Z,61.99
2023-02-09T02:49:42.051Z,61.84
2023-02-09T02:54:47.516Z,61.86
2023-02-09T02:59:54.025Z,61.73
2023-02-09T03:04:59.913Z,62.11
2023-02-09T03:10:03.108Z,61.95
2023-02-09T03:15:16.355Z,62.30
2023-02-09T03:20:27.054Z,62.51
2023-02-09T03:25:32.852Z,62.36
2023-02-09T03:30:35.269Z,63.13
2023-02-09T03:35:40.580Z,62.85
2023-02-09T03:40:41.319Z,63.29
2023-02-09T03:45:41.997Z,63.36
2023-02-09T03:50:44.350Z,62.97
2023-02-09T03:55:47.265Z,63.00
2023-02-09T04:00:48.025Z,63.40
2023-02-09T04:05:50.044Z,63.74
2023-02-09T04:10:50.736Z,64.08
2023-02-09T04:15:51.623Z,64.72
2023-02-09T04:20:53.730Z,64.60
2023-02-09T04:25:54.403Z,64.86
2023-02-09T04:30:55.986Z,65.29
2023-02-09T04:35:58.369Z,65.23
2023-02-09T04:41:01.585Z,65.59
2023-02-09T04:46:02.423Z,65.92
2023-02-09T04:51:04.738Z,65.98
2023-02-09T04:56:06.316Z,66.13
2023-02-09T05:01:08.266Z,66.24
2023-02-09T05:06:10.418Z,67.28
2023-02-09T05:11:11.491Z,67.77
2023-02-09T05:16:15.901Z,68.76
2023-02-09T05:21:17.973Z,69.42
2023-02-09T05:26:18.665Z,69.79
2023-02-09T05:31:19.428Z,70.49
2023-02-09T05:36:21.518Z,71.41
2023-02-09T05:41:36.187Z,71.41
2023-02-09T05:46:36.870Z,72.77
2023-02-09T05:51:38.896Z,72.48
2023-02-09T05:56:40.772Z,71.80
2023-02-09T06:01:41.440Z,71.79
2023-02-09T06:06:43.495Z,72.18
2023-02-09T06:11:44.212Z,72.68
2023-02-09T06:16:45.241Z,72.49
2023-02-09T06:21:47.691Z,73.23
2023-02-09T06:26:48.377Z,72.95
2023-02-09T06:31:49.194Z,73.41
2023-02-09T06:36:51.216Z,73.73
2023-02-09T06:41:52.373Z,74.05
2023-02-09T06:46:53.039Z,74.03
2023-02-09T06:51:55.077Z,74.24
2023-02-09T06:56:56.020Z,74.14
2023-02-09T07:01:56.713Z,75.20
2023-02-09T07:06:58.749Z,74.97
2023-02-09T07:11:59.429Z,75.00
2023-02-09T07:17:00.175Z,74.38
2023-02-09T07:22:02.156Z,73.97
2023-02-09T07:27:02.796Z,74.00
2023-02-09T07:32:03.600Z,76.42
2023-02-09T07:37:06.171Z,73.23
2023-02-09T07:42:07.007Z,72.71
2023-02-09T07:47:21.993Z,72.32
2023-02-09T07:52:24.004Z,72.58
2023-02-09T07:57:24.649Z,71.76
2023-02-09T08:02:30.252Z,71.49
2023-02-09T08:07:32.804Z,71.06
2023-02-09T08:12:47.590Z,71.11
2023-02-09T08:17:48.829Z,70.44
2023-02-09T08:22:55.401Z,70.77
2023-02-09T08:27:57.079Z,71.26
2023-02-09T08:32:57.812Z,70.67
2023-02-09T08:38:02.389Z,69.95
2023-02-09T08:43:03.102Z,69.65
2023-02-09T08:48:03.932Z,68.75
2023-02-09T08:53:06.501Z,68.29
2023-02-09T08:58:07.727Z,68.04
2023-02-09T09:03:08.397Z,66.67
2023-02-09T09:08:10.431Z,65.81
2023-02-09T09:13:11.096Z,66.03
2023-02-09T09:18:12.988Z,65.10
2023-02-09T09:23:15.636Z,64.51
2023-02-09T09:28:16.785Z,62.71
2023-02-09T09:33:17.617Z,62.40
2023-02-09T09:38:19.796Z,61.09
2023-02-09T09:43:25.641Z,60.94
2023-02-09T09:48:28.149Z,60.34
2023-02-09T09:53:33.508Z,59.40
2023-02-09T09:58:35.568Z,58.25
2023-02-09T10:03:36.300Z,58.04
2023-02-09T10:08:44.753Z,56.27
2023-02-09T10:13:49.513Z,54.99
2023-02-09T10:18:54.780Z,53.57
2023-02-09T10:24:13.922Z,53.22
2023-02-09T10:29:25.160Z,52.57
2023-02-09T10:34:32.802Z,58.62
2023-02-09T10:39:36.744Z,53.88
2023-02-09T10:44:51.281Z,52.19
2023-02-09T10:49:54.933Z,50.88
2023-02-09T10:54:59.929Z,50.06
2023-02-09T11:00:04.422Z,49.13
2023-02-09T11:05:32.700Z,48.61
2023-02-09T11:10:39.985Z,47.08
2023-02-09T11:15:48.859Z,46.43
2023-02-09T11:20:53.110Z,45.89
2023-02-09T11:26:01.995Z,45.70
2023-02-09T11:31:24.989Z,45.19
2023-02-09T11:36:41.891Z,44.95
2023-02-09T11:42:07.433Z,44.19
2023-02-09T11:47:12.084Z,44.71
2023-02-09T11:52:18.262Z,44.34
2023-02-09T11:57:29.596Z,44.41
2023-02-09T12:02:46.156Z,43.61
2023-02-09T12:08:07.883Z,43.12
2023-02-09T12:13:24.074Z,43.50
2023-02-09T12:18:27.572Z,43.17
2023-02-09T12:23:32.874Z,43.42
2023-02-09T12:28:45.285Z,43.39
2023-02-09T12:34:11.488Z,44.04
2023-02-09T12:39:24.258Z,45.23
2023-02-09T12:44:39.854Z,45.14
2023-02-09T12:49:40.976Z,45.13
2023-02-09T12:54:44.860Z,45.86
2023-02-09T13:00:28.856Z,46.30
2023-02-09T13:05:33.680Z,45.82
2023-02-09T13:10:40.190Z,46.19
2023-02-09T13:15:53.861Z,46.57
2023-02-09T13:21:13.998Z,45.93
2023-02-09T13:26:22.009Z,46.13
2023-02-09T13:31:37.287Z,45.81
2023-02-09T13:36:47.345Z,44.85
2023-02-09T13:41:50.015Z,44.44
2023-02-09T13:46:59.932Z,44.11
2023-02-09T13:52:15.486Z,44.00
2023-02-09T13:57:29.477Z,43.81
2023-02-09T14:02:31.613Z,43.56
2023-02-09T14:07:34.902Z,43.92
2023-02-09T14:12:52.529Z,43.85
2023-02-09T14:17:56.301Z,44.52
2023-02-09T14:22:59.120Z,44.30
2023-02-09T14:27:59.961Z,44.79
2023-02-09T14:33:03.447Z,45.06
2023-02-09T14:38:04.990Z,45.24
2023-02-09T14:43:24.916Z,45.43
2023-02-09T14:48:28.675Z,45.29
2023-02-09T14:53:31.920Z,45.73
2023-02-09T14:58:33.616Z,46.41
2023-02-09T15:03:35.633Z,46.29
2023-02-09T15:08:38.978Z,47.27
2023-02-09T15:13:40.113Z,47.30
2023-02-09T15:18:42.177Z,48.25
2023-02-09T15:23:42.873Z,48.68
2023-02-09T15:28:44.128Z,49.10
2023-02-09T15:33:46.133Z,49.46
2023-02-09T15:38:46.990Z,49.78
2023-02-09T15:44:05.486Z,50.51
2023-02-09T15:49:07.613Z,50.68
2023-02-09T15:54:13.505Z,51.39
2023-02-09T15:59:18.858Z,52.25
2023-02-09T16:04:20.965Z,52.98
2023-02-09T16:09:26.658Z,53.57
2023-02-09T16:14:28.353Z,54.81
2023-02-09T16:19:30.568Z,55.54
2023-02-09T16:24:34.610Z,55.96
2023-02-09T16:29:35.368Z,56.12
2023-02-09T16:34:37.367Z,56.39
2023-02-09T16:39:38.071Z,56.80
2023-02-09T16:44:38.716Z,56.92
2023-02-09T16:49:42.501Z,57.06
2023-02-09T16:54:45.798Z,57.39
2023-02-09T16:59:46.807Z,57.56
2023-02-09T17:04:48.889Z,58.84
2023-02-09T17:09:49.653Z,58.50
2023-02-09T17:14:50.327Z,59.01
2023-02-09T17:20:00.747Z,59.07
2023-02-09T17:25:01.633Z,59.76
2023-02-09T17:30:02.341Z,60.42
2023-02-09T17:35:04.569Z,60.48
2023-02-09T17:40:05.779Z,61.00
2023-02-09T17:45:11.678Z,61.17
2023-02-09T17:50:13.714Z,61.27
2023-02-09T17:55:26.564Z,61.83
2023-02-09T18:00:28.781Z,61.33
2023-02-09T18:05:34.800Z,62.12
2023-02-09T18:10:36.089Z,62.46
2023-02-09T18:15:40.458Z,62.15
2023-02-09T18:20:42.859Z,62.29
2023-02-09T18:25:43.806Z,63.05
2023-02-09T18:30:45.357Z,63.02
2023-02-09T18:35:47.725Z,63.34
2023-02-09T18:40:48.584Z,63.17
2023-02-09T18:45:49.569Z,63.85
2023-02-09T18:50:53.002Z,64.17
2023-02-09T18:55:54.380Z,63.56
2023-02-09T19:00:55.181Z,64.32
2023-02-09T19:05:57.206Z,63.98
2023-02-09T19:10:57.895Z,63.87
2023-02-09T19:15:58.653Z,63.72
2023-02-09T19:21:04.770Z,64.02
2023-02-09T19:26:06.598Z,64.01
2023-02-09T19:31:11.704Z,63.85
2023-02-09T19:36:13.763Z,63.87
2023-02-09T19:41:14.450Z,63.69
2023-02-09T19:46:15.227Z,63.61
2023-02-09T19:51:17.345Z,63.85
2023-02-09T19:56:20.807Z,63.91
2023-02-09T20:01:22.023Z,64.13
2023-02-09T20:06:24.929Z,64.41
2023-02-09T20:11:25.657Z,64.24
2023-02-09T20:16:28.364Z,64.14
2023-02-09T20:21:30.455Z,64.58
2023-02-09T20:26:33.079Z,64.99
2023-02-09T20:31:36.826Z,64.92
2023-02-09T20:36:41.289Z,64.90
2023-02-09T20:42:02.298Z,65.04
2023-02-09T20:47:03.108Z,64.92
2023-02-09T20:52:05.345Z,64.50
2023-02-09T20:57:06.402Z,64.78
2023-02-09T21:02:07.131Z,64.57
2023-02-09T21:07:09.286Z,64.27
2023-02-09T21:12:10.030Z,64.61
2023-02-09T21:17:10.981Z,65.18
2023-02-09T21:22:14.678Z,64.77
2023-02-09T21:27:15.322Z,65.16
2023-02-09T21:32:16.073Z,64.69
2023-02-09T21:37:18.090Z,65.19
2023-02-09T21:42:28.682Z,65.45
2023-02-09T21:47:30.565Z,65.25
2023-02-09T21:52:34.527Z,65.60
2023-02-09T21:57:35.479Z,65.93
2023-02-09T22:02:36.985Z,65.65
2023-02-09T22:07:39.105Z,66.29
2023-02-09T22:12:40.899Z,66.19
2023-02-09T22:17:41.574Z,67.14
2023-02-09T22:22:45.400Z,66.60
2023-02-09T22:27:46.077Z,66.73
2023-02-09T22:32:46.820Z,67.21
2023-02-09T22:37:48.861Z,67.32
2023-02-09T22:42:49.710Z,67.83
2023-02-09T22:47:50.389Z,68.05
2023-02-09T22:52:52.382Z,68.10
2023-02-09T22:57:53.060Z,68.12
2023-02-09T23:02:54.313Z,68.83
2023-02-09T23:07:56.309Z,68.91
2023-02-09T23:12:56.959Z,68.83
2023-02-09T23:17:57.600Z,68.71
2023-02-09T23:23:01.418Z,69.31
2023-02-09T23:28:02.198Z,70.25
2023-02-09T23:33:02.958Z,69.83
2023-02-09T23:38:04.983Z,70.50
2023-02-09T23:43:05.737Z,70.95
2023-02-09T23:48:07.194Z,71.33
2023-02-09T23:53:09.177Z,71.54
2023-02-09T23:58:09.825Z,72.05
